Terminal Aerodrome Forecast
Issued by NWS Upton, NY

Home | Current Version | Previous Version | Text Only | Print | Product List | Glossary On
Versions: 1 2 3 4 5 6 7 8 9 10 11 12 13 14 15 16 17 18 19 20 21 22 23 24 25 26 27 28 29 30 31 32 33
000
FTUS41 KOKX 020800 AAA
TAFJFK
TAF AMD
KJFK 020831Z 0209/0312 VRB05KT P6SM FEW020 SCT080
      TEMPO 0210/0213 6SM BR SCT020
     FM021300 23007KT P6SM SCT060
     FM021600 21010KT P6SM SCT050
     FM021900 18014KT P6SM SCT050
     FM030200 23009KT P6SM SCT050 BKN150 PROB30 0303/0307 SHRA
      BKN050
     FM030700 28007KT P6SM SCT150=

USA.gov is the U.S. government's official web portal to all federal, state and local government web resources and services.